createdAt,value
2019-04-11T00:00:15.284Z,998.50
2019-04-11T00:01:36.080Z,998.53
2019-04-11T00:02:36.735Z,998.52
2019-04-11T00:03:47.451Z,998.52
2019-04-11T00:04:58.795Z,998.47
2019-04-11T00:06:09.577Z,998.47
2019-04-11T00:07:20.422Z,998.47
2019-04-11T00:08:30.445Z,998.44
2019-04-11T00:09:41.154Z,998.42
2019-04-11T00:10:53.426Z,998.40
2019-04-11T00:12:03.037Z,998.37
2019-04-11T00:13:18.919Z,998.34
2019-04-11T00:14:24.742Z,998.30
2019-04-11T00:15:35.454Z,998.33
2019-04-11T00:16:46.154Z,998.34
2019-04-11T00:17:56.870Z,998.29
2019-04-11T00:19:07.567Z,998.29
2019-04-11T00:20:18.751Z,998.28
2019-04-11T00:21:29.457Z,998.25
2019-04-11T00:22:40.181Z,998.29
2019-04-11T00:23:50.889Z,998.29
2019-04-11T00:25:01.600Z,998.29
2019-04-11T00:26:12.305Z,998.31
2019-04-11T00:27:23.004Z,998.31
2019-04-11T00:28:34.048Z,998.31
2019-04-11T00:29:44.847Z,998.34
2019-04-11T00:30:55.127Z,998.33
2019-04-11T00:32:08.047Z,998.34
2019-04-11T00:33:16.760Z,998.38
2019-04-11T00:34:27.467Z,998.38
2019-04-11T00:35:38.167Z,998.43
2019-04-11T00:36:48.863Z,998.44
2019-04-11T00:37:59.596Z,998.47
2019-04-11T00:39:11.119Z,998.43
2019-04-11T00:40:21.529Z,998.42
2019-04-11T00:41:32.343Z,998.43
2019-04-11T00:42:42.986Z,998.37
2019-04-11T00:43:54.549Z,998.42
2019-04-11T00:45:05.345Z,998.41
2019-04-11T00:46:14.887Z,998.35
2019-04-11T00:47:25.794Z,998.32
2019-04-11T00:48:36.312Z,998.32
2019-04-11T00:49:47.019Z,998.33
2019-04-11T00:50:57.729Z,998.31
2019-04-11T00:52:08.687Z,998.27
2019-04-11T00:53:20.378Z,998.29
2019-04-11T00:54:30.956Z,998.28
2019-04-11T00:55:41.783Z,998.33
2019-04-11T00:56:52.670Z,998.32
2019-04-11T00:58:03.498Z,998.32
2019-04-11T00:59:14.156Z,998.27
2019-04-11T01:00:24.320Z,998.28
2019-04-11T01:01:35.680Z,998.24
2019-04-11T01:02:45.720Z,998.23
2019-04-11T01:03:56.447Z,998.24
2019-04-11T01:05:07.574Z,998.21
2019-04-11T01:06:18.267Z,998.22
2019-04-11T01:07:29.115Z,998.23
2019-04-11T01:08:39.946Z,998.30
2019-04-11T01:09:50.708Z,998.29
2019-04-11T01:11:01.000Z,998.29
2019-04-11T01:12:12.200Z,998.27
2019-04-11T01:13:22.394Z,998.37
2019-04-11T01:14:34.053Z,998.41
2019-04-11T01:15:44.796Z,998.42
2019-04-11T01:16:54.521Z,998.41
2019-04-11T01:18:05.601Z,998.47
2019-04-11T01:19:16.379Z,998.51
2019-04-11T01:20:27.242Z,998.55
2019-04-11T01:21:37.813Z,998.55
2019-04-11T01:22:48.726Z,998.53
2019-04-11T01:23:59.611Z,998.56
2019-04-11T01:25:10.448Z,998.59
2019-04-11T01:26:21.216Z,998.60
2019-04-11T01:27:32.069Z,998.63
2019-04-11T01:28:42.883Z,998.64
2019-04-11T01:29:52.895Z,998.67
2019-04-11T01:31:03.591Z,998.67
2019-04-11T01:32:14.314Z,998.70
2019-04-11T01:33:25.000Z,998.68
2019-04-11T01:34:36.994Z,998.70
2019-04-11T01:35:46.413Z,998.65
2019-04-11T01:36:57.541Z,998.68
2019-04-11T01:38:08.300Z,998.71
2019-04-11T01:39:18.974Z,998.77
2019-04-11T01:40:29.838Z,998.75
2019-04-11T01:41:39.929Z,998.76
2019-04-11T01:42:51.364Z,998.78
2019-04-11T01:44:05.261Z,998.78
2019-04-11T01:45:12.044Z,998.78
2019-04-11T01:46:22.736Z,998.83
2019-04-11T01:47:33.423Z,998.84
2019-04-11T01:48:44.209Z,998.85
2019-04-11T01:49:54.960Z,998.85
2019-04-11T01:51:05.668Z,998.88
2019-04-11T01:52:16.386Z,998.89
2019-04-11T01:53:27.097Z,998.83
2019-04-11T01:54:37.760Z,998.89
2019-04-11T01:55:48.480Z,998.86
2019-04-11T01:56:59.169Z,998.90
2019-04-11T01:58:10.839Z,998.86
2019-04-11T01:59:21.542Z,998.90
2019-04-11T02:00:32.243Z,998.93
2019-04-11T02:01:42.950Z,998.95
2019-04-11T02:02:52.918Z,998.96
2019-04-11T02:04:03.633Z,999.00
2019-04-11T02:05:14.013Z,999.02
2019-04-11T02:06:25.623Z,999.08
2019-04-11T02:07:36.467Z,999.09
2019-04-11T02:08:47.174Z,999.12
2019-04-11T02:09:56.837Z,999.14
2019-04-11T02:11:08.189Z,999.10
2019-04-11T02:12:18.248Z,999.18
2019-04-11T02:13:29.851Z,999.18
2019-04-11T02:14:39.672Z,999.13
2019-04-11T02:15:50.192Z,999.23
2019-04-11T02:17:01.233Z,999.18
2019-04-11T02:18:11.600Z,999.18
2019-04-11T02:19:22.333Z,999.17
2019-04-11T02:20:33.375Z,999.12
2019-04-11T02:21:44.171Z,999.11
2019-04-11T02:22:54.992Z,999.11
2019-04-11T02:24:05.801Z,999.16
2019-04-11T02:25:16.441Z,999.17
2019-04-11T02:26:27.268Z,999.18
2019-04-11T02:27:38.125Z,999.22
2019-04-11T02:28:49.820Z,999.20
2019-04-11T02:30:01.224Z,999.22
2019-04-11T02:31:12.072Z,999.23
2019-04-11T02:32:24.590Z,999.19
2019-04-11T02:33:32.936Z,999.22
2019-04-11T02:34:43.885Z,999.26
2019-04-11T02:35:54.376Z,999.22
2019-04-11T02:37:05.033Z,999.24
2019-04-11T02:38:16.509Z,999.26
2019-04-11T02:39:27.467Z,999.22
2019-04-11T02:40:37.338Z,999.21
2019-04-11T02:41:47.578Z,999.24
2019-04-11T02:42:59.408Z,999.22
2019-04-11T02:44:27.310Z,999.19
2019-04-11T02:45:31.299Z,999.27
2019-04-11T02:46:38.274Z,999.27
2019-04-11T02:47:43.933Z,999.35
2019-04-11T02:48:52.212Z,999.32
2019-04-11T02:50:03.703Z,999.31
2019-04-11T02:51:14.536Z,999.33
2019-04-11T02:52:25.315Z,999.34
2019-04-11T02:53:34.581Z,999.38
2019-04-11T02:54:47.258Z,999.41
2019-04-11T02:55:56.900Z,999.38
2019-04-11T02:57:07.927Z,999.38
2019-04-11T02:58:18.689Z,999.37
2019-04-11T02:59:29.815Z,999.34
2019-04-11T03:00:40.283Z,999.34
2019-04-11T03:01:50.871Z,999.35
2019-04-11T03:03:01.657Z,999.37
2019-04-11T03:04:12.757Z,999.41
2019-04-11T03:05:22.011Z,999.41
2019-04-11T03:06:33.374Z,999.38
2019-04-11T03:07:43.318Z,999.41
2019-04-11T03:08:55.062Z,999.43
2019-04-11T03:10:05.117Z,999.44
2019-04-11T03:11:16.695Z,999.47
2019-04-11T03:12:27.596Z,999.47
2019-04-11T03:13:38.086Z,999.46
2019-04-11T03:15:05.398Z,999.51
2019-04-11T03:16:11.091Z,999.54
2019-04-11T03:17:17.366Z,999.48
2019-04-11T03:18:40.746Z,999.50
2019-04-11T03:19:46.848Z,999.49
2019-04-11T03:20:48.344Z,999.55
2019-04-11T03:21:52.433Z,999.57
2019-04-11T03:23:06.222Z,999.61
2019-04-11T03:24:15.346Z,999.62
2019-04-11T03:25:24.802Z,999.65
2019-04-11T03:26:35.667Z,999.69
2019-04-11T03:27:47.471Z,999.75
2019-04-11T03:28:57.566Z,999.71
2019-04-11T03:32:13.437Z,999.71
2019-04-11T03:33:17.179Z,999.72
2019-04-11T03:34:39.815Z,999.69
2019-04-11T03:35:36.930Z,999.77
2019-04-11T03:37:08.841Z,999.74
2019-04-11T03:37:37.302Z,999.73
2019-04-11T03:39:57.424Z,999.72
2019-04-11T03:41:02.460Z,999.72
2019-04-11T03:42:15.976Z,999.71
2019-04-11T03:43:23.089Z,999.73
2019-04-11T03:44:23.437Z,999.77
2019-04-11T03:45:48.076Z,999.80
2019-04-11T03:46:52.462Z,999.79
2019-04-11T03:48:03.244Z,999.82
2019-04-11T03:49:06.095Z,999.82
2019-04-11T03:50:16.507Z,999.82
2019-04-11T03:51:22.333Z,999.87
2019-04-11T03:52:32.737Z,999.86
2019-04-11T03:53:43.190Z,999.89
2019-04-11T03:54:53.976Z,999.96
2019-04-11T03:56:04.425Z,999.93
2019-04-11T03:57:15.736Z,999.95
2019-04-11T03:58:25.848Z,999.93
2019-04-11T03:59:36.728Z,999.96
2019-04-11T04:00:46.843Z,999.97
2019-04-11T04:01:59.700Z,1000.03
2019-04-11T04:03:09.245Z,1000.03
2019-04-11T04:04:21.336Z,1000.01
2019-04-11T04:05:32.363Z,1000.07
2019-04-11T04:06:41.500Z,1000.06
2019-04-11T04:07:52.492Z,1000.08
2019-04-11T04:09:03.151Z,1000.11
2019-04-11T04:10:13.970Z,1000.11
2019-04-11T04:11:26.728Z,1000.16
2019-04-11T04:12:35.725Z,1000.19
2019-04-11T04:13:47.089Z,1000.20
2019-04-11T04:14:56.213Z,1000.20
2019-04-11T04:17:19.148Z,1000.23
2019-04-11T04:18:29.889Z,1000.29
2019-04-11T04:19:40.351Z,1000.32
2019-04-11T04:20:51.205Z,1000.30
2019-04-11T04:22:03.117Z,1000.37
2019-04-11T04:23:13.925Z,1000.36
2019-04-11T04:24:22.996Z,1000.37
2019-04-11T04:25:34.748Z,1000.34
2019-04-11T04:26:44.330Z,1000.36
2019-04-11T04:27:56.689Z,1000.41
2019-04-11T04:29:07.402Z,1000.47
2019-04-11T04:30:18.113Z,1000.45
2019-04-11T04:31:28.530Z,1000.44
2019-04-11T04:32:38.649Z,1000.48
2019-04-11T04:33:48.861Z,1000.49
2019-04-11T04:35:01.107Z,1000.49
2019-04-11T04:36:11.005Z,1000.47
2019-04-11T04:37:22.358Z,1000.46
2019-04-11T04:38:31.690Z,1000.49
2019-04-11T04:39:43.519Z,1000.48
2019-04-11T04:41:07.354Z,1000.51
2019-04-11T04:42:08.879Z,1000.50
2019-04-11T04:43:14.649Z,1000.54
2019-04-11T04:44:26.450Z,1000.51
2019-04-11T04:45:54.143Z,1000.57
2019-04-11T04:46:58.173Z,1000.59
2019-04-11T04:48:03.298Z,1000.56
2019-04-11T04:49:09.207Z,1000.56
2019-04-11T04:50:20.039Z,1000.52
2019-04-11T04:51:31.208Z,1000.63
2019-04-11T04:52:40.877Z,1000.64
2019-04-11T04:53:52.122Z,1000.62
2019-04-11T04:55:03.922Z,1000.65
2019-04-11T04:56:13.449Z,1000.67
2019-04-11T04:57:24.442Z,1000.68
2019-04-11T04:58:34.387Z,1000.68
2019-04-11T04:59:44.890Z,1000.71
2019-04-11T05:00:57.369Z,1000.69
2019-04-11T05:02:06.651Z,1000.74
2019-04-11T05:03:17.754Z,1000.74
2019-04-11T05:04:29.609Z,1000.69
2019-04-11T05:05:38.945Z,1000.71
2019-04-11T05:06:50.907Z,1000.77
2019-04-11T05:08:00.667Z,1000.72
2019-04-11T05:09:10.738Z,1000.78
2019-04-11T05:10:22.159Z,1000.80
2019-04-11T05:11:31.826Z,1000.78
2019-04-11T05:12:43.941Z,1000.82
2019-04-11T05:13:54.490Z,1000.84
2019-04-11T05:15:03.860Z,1000.79
2019-04-11T05:16:17.537Z,1000.82
2019-04-11T05:17:26.406Z,1000.83
2019-04-11T05:18:36.440Z,1000.83
2019-04-11T05:19:46.794Z,1000.80
2019-04-11T05:20:57.463Z,1000.76
2019-04-11T05:22:08.547Z,1000.78
2019-04-11T05:23:18.790Z,1000.81
2019-04-11T05:24:30.479Z,1000.85
2019-04-11T05:25:40.134Z,1000.81
2019-04-11T05:26:50.813Z,1000.81
2019-04-11T05:28:02.260Z,1000.78
2019-04-11T05:29:13.171Z,1000.75
2019-04-11T05:30:23.118Z,1000.74
2019-04-11T05:31:34.442Z,1000.76
2019-04-11T05:32:45.171Z,1000.73
2019-04-11T05:33:55.968Z,1000.68
2019-04-11T05:35:05.507Z,1000.67
2019-04-11T05:36:16.537Z,1000.62
2019-04-11T05:37:27.013Z,1000.60
2019-04-11T05:38:37.930Z,1000.58
2019-04-11T05:39:48.263Z,1000.60
2019-04-11T05:40:59.474Z,1000.55
2019-04-11T05:42:11.203Z,1000.59
2019-04-11T05:43:22.550Z,1000.56
2019-04-11T05:44:32.573Z,1000.58
2019-04-11T05:45:42.295Z,1000.54
2019-04-11T05:46:58.534Z,1000.57
2019-04-11T05:48:03.564Z,1000.56
2019-04-11T05:49:14.245Z,1000.49
2019-04-11T05:50:24.927Z,1000.48
2019-04-11T05:51:39.364Z,1000.47
2019-04-11T05:52:46.276Z,1000.53
2019-04-11T05:53:57.733Z,1000.52
2019-04-11T05:55:11.492Z,1000.49
2019-04-11T05:56:19.174Z,1000.43
2019-04-11T05:57:35.323Z,1000.41
2019-04-11T05:58:44.351Z,1000.36
2019-04-11T05:59:53.461Z,1000.40
2019-04-11T06:01:01.365Z,1000.38
2019-04-11T06:02:13.003Z,1000.34
2019-04-11T06:03:23.957Z,1000.35
2019-04-11T06:04:34.481Z,1000.32
2019-04-11T06:05:44.962Z,1000.30
2019-04-11T06:06:57.262Z,1000.31
2019-04-11T06:08:06.611Z,1000.27
2019-04-11T06:09:17.018Z,1000.27
2019-04-11T06:10:28.287Z,1000.19
2019-04-11T06:11:39.078Z,1000.16
2019-04-11T06:12:49.081Z,1000.18
2019-04-11T06:14:03.736Z,1000.12
2019-04-11T06:15:11.566Z,1000.12
2019-04-11T06:16:21.139Z,1000.14
2019-04-11T06:17:32.332Z,1000.14
2019-04-11T06:18:45.457Z,1000.17
2019-04-11T06:19:53.593Z,1000.19
2019-04-11T06:21:04.038Z,1000.14
2019-04-11T06:22:15.075Z,1000.16
2019-04-11T06:23:25.763Z,1000.17
2019-04-11T06:24:36.493Z,1000.15
2019-04-11T06:25:47.224Z,1000.13
2019-04-11T06:26:58.883Z,1000.08
2019-04-11T06:28:09.618Z,1000.06
2019-04-11T06:29:25.805Z,1000.03
2019-04-11T06:30:30.911Z,1000.04
2019-04-11T06:31:42.328Z,999.99
2019-04-11T06:32:52.310Z,1000.04
2019-04-11T06:34:03.006Z,1000.08
2019-04-11T06:35:13.699Z,1000.00
2019-04-11T06:36:26.582Z,999.98
2019-04-11T06:37:36.118Z,999.86
2019-04-11T06:38:46.808Z,999.85
2019-04-11T06:39:58.238Z,999.86
2019-04-11T06:41:08.346Z,999.85
2019-04-11T06:42:19.175Z,999.87
2019-04-11T06:43:28.861Z,999.93
2019-04-11T06:44:39.796Z,999.91
2019-04-11T06:45:52.359Z,999.93
2019-04-11T06:47:02.695Z,999.95
2019-04-11T06:48:13.550Z,999.96
2019-04-11T06:49:24.577Z,999.93
2019-04-11T06:50:34.066Z,999.96
2019-04-11T06:51:46.272Z,999.96
2019-04-11T06:52:56.052Z,999.89
2019-04-11T06:54:06.680Z,999.81
2019-04-11T06:55:18.275Z,999.79
2019-04-11T06:56:29.354Z,999.72
2019-04-11T06:57:40.338Z,999.66
2019-04-11T06:58:52.472Z,999.62
2019-04-11T07:00:01.194Z,999.62
2019-04-11T07:01:12.015Z,999.59
2019-04-11T07:02:24.496Z,999.51
2019-04-11T07:03:33.829Z,999.55
2019-04-11T07:04:44.098Z,999.49
2019-04-11T07:05:55.292Z,999.45
2019-04-11T07:07:06.509Z,999.25
2019-04-11T07:08:16.162Z,999.26
2019-04-11T07:09:28.741Z,999.16
2019-04-11T07:10:38.559Z,999.16
2019-04-11T07:11:50.472Z,999.12
2019-04-11T07:13:00.692Z,999.11
2019-04-11T07:14:12.418Z,999.04
2019-04-11T07:15:22.983Z,998.98
2019-04-11T07:16:32.642Z,998.94
2019-04-11T07:17:43.844Z,998.98
2019-04-11T07:18:54.839Z,998.82
2019-04-11T07:20:04.791Z,998.76
2019-04-11T07:21:15.506Z,998.69
2019-04-11T07:22:26.420Z,998.66
2019-04-11T07:23:38.356Z,998.65
2019-04-11T07:24:47.871Z,998.60
2019-04-11T07:25:58.588Z,998.57
2019-04-11T07:27:09.539Z,998.63
2019-04-11T07:28:20.030Z,998.60
2019-04-11T07:29:31.531Z,998.49
2019-04-11T07:30:41.679Z,998.43
2019-04-11T07:31:53.044Z,998.31
2019-04-11T07:33:03.936Z,998.26
2019-04-11T07:34:14.713Z,998.21
2019-04-11T07:35:24.989Z,998.14
2019-04-11T07:36:36.097Z,998.14
2019-04-11T07:37:47.393Z,998.12
2019-04-11T07:38:57.089Z,998.07
2019-04-11T07:40:09.467Z,998.08
2019-04-11T07:41:19.529Z,998.00
2019-04-11T07:42:30.958Z,998.00
2019-04-11T07:43:41.508Z,998.09
2019-04-11T07:44:52.557Z,998.19
2019-04-11T07:46:03.292Z,998.06
2019-04-11T07:47:19.270Z,998.12
2019-04-11T07:48:24.970Z,998.27
2019-04-11T07:49:35.490Z,998.33
2019-04-11T07:50:46.563Z,998.17
2019-04-11T07:51:58.079Z,997.98
2019-04-11T07:53:08.678Z,997.99
2019-04-11T07:54:18.486Z,998.00
2019-04-11T07:55:30.031Z,997.98
2019-04-11T07:56:39.971Z,997.97
2019-04-11T07:57:50.709Z,997.93
2019-04-11T07:59:01.450Z,998.02
2019-04-11T08:00:12.806Z,997.91
2019-04-11T08:01:22.945Z,997.94
2019-04-11T08:02:35.451Z,998.12
2019-04-11T08:03:44.930Z,998.21
2019-04-11T08:04:55.692Z,998.21
2019-04-11T08:06:07.501Z,998.00
2019-04-11T08:07:17.704Z,997.89
2019-04-11T08:08:30.127Z,997.73
2019-04-11T08:09:39.702Z,997.65
2019-04-11T08:10:50.581Z,997.66
2019-04-11T08:12:02.385Z,997.46
2019-04-11T08:13:12.363Z,997.45
2019-04-11T08:14:22.648Z,997.53
2019-04-11T08:15:33.534Z,997.53
2019-04-11T08:16:46.812Z,997.50
2019-04-11T08:17:56.410Z,997.47
2019-04-11T08:19:07.592Z,997.57
2019-04-11T08:20:17.973Z,997.71
2019-04-11T08:21:28.740Z,997.65
2019-04-11T08:22:39.489Z,997.73
2019-04-11T08:23:50.248Z,997.58
2019-04-11T08:25:01.003Z,997.43
2019-04-11T08:26:11.753Z,997.14
2019-04-11T08:27:23.214Z,996.64
2019-04-11T08:28:34.390Z,996.22
2019-04-11T08:29:44.380Z,996.10
2019-04-11T08:30:55.162Z,996.26
2019-04-11T08:32:05.697Z,996.67
2019-04-11T08:33:16.336Z,997.02
2019-04-11T08:34:27.137Z,997.18
2019-04-11T08:35:37.857Z,997.35
2019-04-11T08:36:48.966Z,997.37
2019-04-11T08:38:00.950Z,997.29
2019-04-11T08:39:11.070Z,997.22
2019-04-11T08:40:21.864Z,996.67
2019-04-11T08:41:32.113Z,996.64
2019-04-11T08:42:42.964Z,996.42
2019-04-11T08:43:53.840Z,996.43
2019-04-11T08:45:05.938Z,996.68
2019-04-11T08:46:15.654Z,996.52
2019-04-11T08:47:40.218Z,996.30
2019-04-11T08:48:37.574Z,996.01
2019-04-11T08:49:48.581Z,995.72
2019-04-11T08:50:59.603Z,995.51
2019-04-11T08:52:11.592Z,994.91
2019-04-11T08:53:21.725Z,994.81
2019-04-11T08:54:33.343Z,994.68
2019-04-11T08:55:53.110Z,994.95
2019-04-11T08:56:56.060Z,994.71
2019-04-11T08:58:07.233Z,994.53
2019-04-11T08:59:18.882Z,994.40
2019-04-11T09:00:31.253Z,994.39
2019-04-11T09:01:42.354Z,994.66
2019-04-11T09:02:53.461Z,995.02
2019-04-11T09:04:07.952Z,994.82
2019-04-11T09:05:18.797Z,994.95
2019-04-11T09:06:26.907Z,995.11
2019-04-11T09:07:38.241Z,995.29
2019-04-11T09:08:49.570Z,995.22
2019-04-11T09:10:01.974Z,995.46
2019-04-11T09:11:12.776Z,994.64
2019-04-11T09:12:24.602Z,994.97
2019-04-11T09:13:35.610Z,994.95
2019-04-11T09:14:46.570Z,995.20
2019-04-11T09:15:57.857Z,995.23
2019-04-11T09:17:10.095Z,994.49
2019-04-11T09:18:21.824Z,995.50
2019-04-11T09:19:32.812Z,995.86
2019-04-11T09:20:44.145Z,994.68
2019-04-11T09:21:56.252Z,994.27
2019-04-11T09:23:07.136Z,994.68
2019-04-11T09:24:18.747Z,994.28
2019-04-11T09:25:31.618Z,994.22
2019-04-11T09:26:42.545Z,994.55
2019-04-11T09:27:54.462Z,994.11
2019-04-11T09:29:06.788Z,994.10
2019-04-11T09:30:17.457Z,993.64
2019-04-11T09:31:27.882Z,994.34
2019-04-11T09:32:40.357Z,994.77
2019-04-11T09:33:51.054Z,995.27
2019-04-11T09:35:02.641Z,995.25
2019-04-11T09:36:15.514Z,995.27
2019-04-11T09:37:25.845Z,995.14
2019-04-11T09:38:38.164Z,995.07
2019-04-11T09:39:49.097Z,994.96
2019-04-11T09:41:00.790Z,994.19
2019-04-11T09:42:13.340Z,994.61
2019-04-11T09:43:24.243Z,994.18
2019-04-11T09:44:35.687Z,994.85
2019-04-11T09:45:47.954Z,995.05
2019-04-11T09:46:59.205Z,994.84
2019-04-11T09:48:14.940Z,995.97
2019-04-11T09:49:22.732Z,996.11
2019-04-11T09:50:34.216Z,996.16
2019-04-11T09:51:45.703Z,995.90
2019-04-11T09:52:57.951Z,995.60
2019-04-11T09:54:10.129Z,996.25
2019-04-11T09:55:21.328Z,996.79
2019-04-11T09:56:33.316Z,996.93
2019-04-11T09:57:44.291Z,996.44
2019-04-11T09:58:56.156Z,996.09
2019-04-11T10:00:07.939Z,996.76
2019-04-11T10:01:20.276Z,996.69
2019-04-11T10:02:31.745Z,996.37
2019-04-11T10:03:43.516Z,996.23
2019-04-11T10:04:56.851Z,995.91
2019-04-11T10:05:26.565Z,995.54
2019-04-11T10:06:38.869Z,996.67
2019-04-11T10:07:50.316Z,996.02
2019-04-11T10:09:01.848Z,995.72
2019-04-11T10:10:14.965Z,995.65
2019-04-11T10:11:26.771Z,995.96
2019-04-11T10:12:38.579Z,996.18
2019-04-11T10:13:51.200Z,996.66
2019-04-11T10:15:05.019Z,996.67
2019-04-11T10:16:16.040Z,997.08
2019-04-11T10:17:27.875Z,996.99
2019-04-11T10:18:41.135Z,997.28
2019-04-11T10:19:52.016Z,997.05
2019-04-11T10:21:04.737Z,997.14
2019-04-11T10:22:15.816Z,996.65
2019-04-11T10:23:28.916Z,995.97
2019-04-11T10:24:40.853Z,996.86
2019-04-11T10:25:51.867Z,996.36
2019-04-11T10:27:04.769Z,995.50
2019-04-11T10:28:17.475Z,995.48
2019-04-11T10:29:30.393Z,996.14
2019-04-11T10:30:41.961Z,995.94
2019-04-11T10:31:53.124Z,995.55
2019-04-11T10:33:04.994Z,995.64
2019-04-11T10:34:17.517Z,995.11
2019-04-11T10:35:30.279Z,995.44
2019-04-11T10:36:41.582Z,996.31
2019-04-11T10:37:53.452Z,995.98
2019-04-11T10:39:05.466Z,994.62
2019-04-11T10:40:20.611Z,994.56
2019-04-11T10:41:30.653Z,995.27
2019-04-11T10:42:42.471Z,994.37
2019-04-11T10:43:53.796Z,995.22
2019-04-11T10:45:06.591Z,995.41
2019-04-11T10:46:17.805Z,995.16
2019-04-11T10:47:31.182Z,995.86
2019-04-11T10:48:44.995Z,995.23
2019-04-11T10:49:54.665Z,995.29
2019-04-11T10:51:06.660Z,994.35
2019-04-11T10:52:18.352Z,994.30
2019-04-11T10:53:31.201Z,994.71
2019-04-11T10:54:42.209Z,994.86
2019-04-11T10:55:54.144Z,994.73
2019-04-11T10:57:06.079Z,994.39
2019-04-11T10:58:18.480Z,995.02
2019-04-11T10:59:32.346Z,994.28
2019-04-11T11:00:43.237Z,994.52
2019-04-11T11:01:56.092Z,994.47
2019-04-11T11:03:07.443Z,994.13
2019-04-11T11:04:20.036Z,994.29
2019-04-11T11:05:32.575Z,994.27
2019-04-11T11:06:46.468Z,993.89
2019-04-11T11:07:57.277Z,993.84
2019-04-11T11:09:10.120Z,993.38
2019-04-11T11:10:21.681Z,994.52
2019-04-11T11:11:33.165Z,994.52
2019-04-11T11:12:45.474Z,994.75
2019-04-11T11:13:58.410Z,994.99
2019-04-11T11:15:09.771Z,995.11
2019-04-11T11:16:22.320Z,994.32
2019-04-11T11:17:54.529Z,994.13
2019-04-11T11:19:15.383Z,994.24
2019-04-11T11:20:10.619Z,994.25
2019-04-11T11:21:09.844Z,994.94
2019-04-11T11:22:23.753Z,994.95
2019-04-11T11:23:35.270Z,994.64
2019-04-11T11:24:46.365Z,993.53
2019-04-11T11:25:58.524Z,993.91
2019-04-11T11:27:10.109Z,995.10
2019-04-11T11:28:22.072Z,995.44
2019-04-11T11:29:35.003Z,995.19
2019-04-11T11:30:47.403Z,995.27
2019-04-11T11:31:58.517Z,995.65
2019-04-11T11:33:10.910Z,995.42
2019-04-11T11:34:24.769Z,995.79
2019-04-11T11:35:39.080Z,996.84
2019-04-11T11:36:48.029Z,995.49
2019-04-11T11:37:59.777Z,995.10
2019-04-11T11:39:13.099Z,994.58
2019-04-11T11:40:24.131Z,995.28
2019-04-11T11:41:36.461Z,995.15
2019-04-11T11:42:48.044Z,996.13
2019-04-11T11:44:00.196Z,995.95
2019-04-11T11:45:13.100Z,995.92
2019-04-11T11:46:26.734Z,995.44
2019-04-11T11:47:39.541Z,994.72
2019-04-11T11:48:52.194Z,994.97
2019-04-11T11:50:02.790Z,995.09
2019-04-11T11:51:13.061Z,995.72
2019-04-11T11:52:24.781Z,995.76
2019-04-11T11:53:35.925Z,995.46
2019-04-11T11:54:48.341Z,994.82
2019-04-11T11:56:02.000Z,994.30
2019-04-11T11:57:12.870Z,995.72
2019-04-11T11:58:25.777Z,996.02
2019-04-11T11:59:36.954Z,996.95
2019-04-11T12:00:50.736Z,995.99
2019-04-11T12:02:00.749Z,996.75
2019-04-11T12:03:13.151Z,995.58
2019-04-11T12:04:26.166Z,995.70
2019-04-11T12:05:38.882Z,995.48
2019-04-11T12:06:53.233Z,995.91
2019-04-11T12:08:01.732Z,995.31
2019-04-11T12:09:14.059Z,995.76
2019-04-11T12:10:26.133Z,996.46
2019-04-11T12:11:39.785Z,996.66
2019-04-11T12:12:51.931Z,997.80
2019-04-11T12:14:02.639Z,998.29
2019-04-11T12:15:17.678Z,998.29
2019-04-11T12:16:26.418Z,999.06
2019-04-11T12:17:38.489Z,998.95
2019-04-11T12:18:53.070Z,998.24
2019-04-11T12:20:08.948Z,998.38
2019-04-11T12:21:16.269Z,998.80
2019-04-11T12:22:26.543Z,999.04
2019-04-11T12:23:48.640Z,998.12
2019-04-11T12:24:50.304Z,998.46
2019-04-11T12:26:03.197Z,998.62
2019-04-11T12:27:14.505Z,997.51
2019-04-11T12:28:27.657Z,997.65
2019-04-11T12:29:38.691Z,997.70
2019-04-11T12:30:55.214Z,997.32
2019-04-11T12:32:03.877Z,998.18
2019-04-11T12:33:17.308Z,996.34
2019-04-11T12:34:28.706Z,997.11
2019-04-11T12:35:40.582Z,998.55
2019-04-11T12:36:53.305Z,999.24
2019-04-11T12:38:04.518Z,999.60
2019-04-11T12:39:16.383Z,999.09
2019-04-11T12:40:28.268Z,999.36
2019-04-11T12:41:40.138Z,999.21
2019-04-11T12:42:52.003Z,999.18
2019-04-11T12:44:03.884Z,998.80
2019-04-11T12:45:15.749Z,998.94
2019-04-11T12:46:30.065Z,998.42
2019-04-11T12:47:39.499Z,997.63
2019-04-11T12:48:51.375Z,997.67
2019-04-11T12:50:03.256Z,997.51
2019-04-11T12:51:15.135Z,997.83
2019-04-11T12:52:27.010Z,998.91
2019-04-11T12:53:38.881Z,997.47
2019-04-11T12:54:50.760Z,997.97
2019-04-11T12:56:02.619Z,997.92
2019-04-11T12:57:14.621Z,997.06
2019-04-11T12:58:26.853Z,996.91
2019-04-11T12:59:38.725Z,996.72
2019-04-11T13:00:50.594Z,998.17
2019-04-11T13:02:02.459Z,997.80
2019-04-11T13:03:14.319Z,997.64
2019-04-11T13:04:26.186Z,998.83
2019-04-11T13:05:38.056Z,998.06
2019-04-11T13:06:49.922Z,998.39
2019-04-11T13:08:01.784Z,997.80
2019-04-11T13:09:13.653Z,998.32
2019-04-11T13:10:25.520Z,998.46
2019-04-11T13:11:37.575Z,998.86
2019-04-11T13:12:49.468Z,998.40
2019-04-11T13:14:01.299Z,998.18
2019-04-11T13:15:13.173Z,997.95
2019-04-11T13:16:25.038Z,998.38
2019-04-11T13:17:36.892Z,998.32
2019-04-11T13:18:49.262Z,998.44
2019-04-11T13:20:04.923Z,998.36
2019-04-11T13:21:13.006Z,998.58
2019-04-11T13:22:24.884Z,998.66
2019-04-11T13:23:36.757Z,998.45
2019-04-11T13:24:48.631Z,998.47
2019-04-11T13:26:00.487Z,998.57
2019-04-11T13:27:12.472Z,998.29
2019-04-11T13:28:25.817Z,998.52
2019-04-11T13:29:37.738Z,997.99
2019-04-11T13:30:49.537Z,998.15
2019-04-11T13:32:01.367Z,997.94
2019-04-11T13:33:13.207Z,998.10
2019-04-11T13:34:25.044Z,999.01
2019-04-11T13:35:36.894Z,998.89
2019-04-11T13:36:48.713Z,999.09
2019-04-11T13:38:00.540Z,999.71
2019-04-11T13:39:12.350Z,999.45
2019-04-11T13:40:24.186Z,998.73
2019-04-11T13:41:36.015Z,999.34
2019-04-11T13:42:47.827Z,999.33
2019-04-11T13:43:59.640Z,999.78
2019-04-11T13:45:11.453Z,998.81
2019-04-11T13:46:23.250Z,999.92
2019-04-11T13:47:35.057Z,1000.58
2019-04-11T13:48:46.825Z,1000.82
2019-04-11T13:49:58.636Z,1001.04
2019-04-11T13:51:10.438Z,1000.39
2019-04-11T13:52:22.225Z,999.96
2019-04-11T13:53:34.011Z,999.50
2019-04-11T13:54:45.792Z,999.99
2019-04-11T13:55:57.578Z,999.88
2019-04-11T13:57:09.351Z,1000.45
2019-04-11T13:58:21.125Z,1000.64
2019-04-11T13:59:33.533Z,1000.00
2019-04-11T14:00:45.303Z,1000.53
2019-04-11T14:01:57.054Z,1000.09
2019-04-11T14:03:08.811Z,1000.37
2019-04-11T14:04:20.566Z,1000.19
2019-04-11T14:05:32.314Z,999.24
2019-04-11T14:06:44.059Z,999.14
2019-04-11T14:07:55.793Z,999.38
2019-04-11T14:09:07.537Z,1000.14
2019-04-11T14:10:19.264Z,999.37
2019-04-11T14:11:31.607Z,999.51
2019-04-11T14:12:42.719Z,999.51
2019-04-11T14:13:54.480Z,999.70
2019-04-11T14:15:06.848Z,1000.13
2019-04-11T14:16:17.839Z,1000.47
2019-04-11T14:17:29.545Z,1000.32
2019-04-11T14:18:42.186Z,1000.21
2019-04-11T14:19:52.933Z,1000.49
2019-04-11T14:21:05.614Z,1000.45
2019-04-11T14:22:17.297Z,999.12
2019-04-11T14:23:28.974Z,999.64
2019-04-11T14:24:41.868Z,999.38
2019-04-11T14:25:52.800Z,999.95
2019-04-11T14:27:04.473Z,1000.00
2019-04-11T14:28:16.134Z,999.89
2019-04-11T14:29:27.790Z,999.66
2019-04-11T14:30:39.439Z,1000.03
2019-04-11T14:31:53.769Z,999.46
2019-04-11T14:33:02.750Z,999.75
2019-04-11T14:34:14.397Z,999.66
2019-04-11T14:35:26.529Z,999.55
2019-04-11T14:36:38.188Z,999.06
2019-04-11T14:37:49.838Z,999.73
2019-04-11T14:39:01.480Z,999.66
2019-04-11T14:40:13.104Z,999.53
2019-04-11T14:41:24.725Z,999.67
2019-04-11T14:42:36.852Z,999.78
2019-04-11T14:43:48.470Z,1000.05
2019-04-11T14:45:00.075Z,999.23